createdAt,value
2023-02-27T00:00:14.671Z,-2.30
2023-02-27T00:02:42.907Z,-2.32
2023-02-27T00:05:11.641Z,-2.30
2023-02-27T00:07:39.703Z,-2.36
2023-02-27T00:10:11.795Z,-2.33
2023-02-27T00:12:39.792Z,-2.35
2023-02-27T00:15:09.642Z,-2.35
2023-02-27T00:17:37.962Z,-2.41
2023-02-27T00:20:07.149Z,-2.48
2023-02-27T00:22:34.906Z,-2.50
2023-02-27T00:25:02.654Z,-2.67
2023-02-27T00:27:34.577Z,-2.74
2023-02-27T00:30:02.559Z,-2.76
2023-02-27T00:32:30.429Z,-2.84
2023-02-27T00:35:01.642Z,-2.86
2023-02-27T00:37:30.080Z,-2.82
2023-02-27T00:39:57.807Z,-2.66
2023-02-27T00:42:25.505Z,-2.66
2023-02-27T00:44:54.600Z,-2.55
2023-02-27T00:47:24.556Z,-2.53
2023-02-27T00:49:52.249Z,-2.51
2023-02-27T00:52:20.003Z,-2.50
2023-02-27T00:54:50.372Z,-2.56
2023-02-27T00:57:19.830Z,-2.56
2023-02-27T00:59:48.549Z,-2.54
2023-02-27T01:02:17.696Z,-2.56
2023-02-27T01:04:48.792Z,-2.53
2023-02-27T01:07:16.539Z,-2.56
2023-02-27T01:09:44.767Z,-2.51
2023-02-27T01:12:12.551Z,-2.59
2023-02-27T01:14:40.532Z,-2.63
2023-02-27T01:17:08.289Z,-2.62
2023-02-27T01:19:37.518Z,-2.65
2023-02-27T01:22:06.177Z,-2.68
2023-02-27T01:24:34.166Z,-2.78
2023-02-27T01:27:01.888Z,-2.79
2023-02-27T01:29:29.605Z,-2.82
2023-02-27T01:31:57.526Z,-2.82
2023-02-27T01:34:25.360Z,-2.87
2023-02-27T01:36:54.451Z,-2.84
2023-02-27T01:39:22.207Z,-2.79
2023-02-27T01:41:49.906Z,-2.86
2023-02-27T01:44:17.630Z,-2.83
2023-02-27T01:46:48.096Z,-2.79
2023-02-27T01:49:19.383Z,-2.87
2023-02-27T01:51:49.483Z,-2.79
2023-02-27T01:54:25.434Z,-2.85
2023-02-27T01:56:53.637Z,-2.84
2023-02-27T01:59:22.710Z,-2.79
2023-02-27T02:01:51.141Z,-2.82
2023-02-27T02:04:25.596Z,-2.75
2023-02-27T02:06:59.173Z,-2.79
2023-02-27T02:09:30.512Z,-2.84
2023-02-27T02:12:00.419Z,-2.94
2023-02-27T02:14:28.424Z,-2.88
2023-02-27T02:17:21.466Z,-2.90
2023-02-27T02:20:09.151Z,-2.97
2023-02-27T02:23:12.419Z,-2.98
2023-02-27T02:26:19.745Z,-2.94
2023-02-27T02:29:17.432Z,-2.87
2023-02-27T02:32:10.764Z,-2.75
2023-02-27T02:35:05.667Z,-2.68
2023-02-27T02:38:18.063Z,-2.64
2023-02-27T02:40:55.046Z,-2.60
2023-02-27T02:43:33.190Z,-2.63
2023-02-27T02:46:10.152Z,-2.64
2023-02-27T02:48:48.008Z,-2.63
2023-02-27T02:51:27.569Z,-2.58
2023-02-27T02:54:03.737Z,-2.50
2023-02-27T02:56:37.308Z,-2.39
2023-02-27T02:59:11.814Z,-2.32
2023-02-27T03:01:44.896Z,-2.34
2023-02-27T03:04:20.864Z,-2.35
2023-02-27T03:06:54.171Z,-2.49
2023-02-27T03:09:28.715Z,-2.63
2023-02-27T03:12:04.297Z,-2.67
2023-02-27T03:14:41.490Z,-2.80
2023-02-27T03:17:15.608Z,-2.82
2023-02-27T03:19:50.924Z,-2.89
2023-02-27T03:22:20.407Z,-2.96
2023-02-27T03:24:53.902Z,-3.02
2023-02-27T03:27:33.908Z,-2.99
2023-02-27T03:30:06.386Z,-2.87
2023-02-27T03:32:39.169Z,-2.87
2023-02-27T03:35:08.576Z,-2.86
2023-02-27T03:37:44.956Z,-2.88
2023-02-27T03:40:25.130Z,-2.80
2023-02-27T03:43:02.847Z,-2.77
2023-02-27T03:45:37.473Z,-2.75
2023-02-27T03:48:11.290Z,-2.72
2023-02-27T03:50:39.623Z,-2.77
2023-02-27T03:53:15.220Z,-2.82
2023-02-27T03:55:45.329Z,-2.79
2023-02-27T03:58:15.126Z,-2.78
2023-02-27T04:00:43.750Z,-2.83
2023-02-27T04:03:12.187Z,-2.76
2023-02-27T04:05:43.772Z,-2.79
2023-02-27T04:08:24.131Z,-2.87
2023-02-27T04:11:12.092Z,-2.79
2023-02-27T04:14:09.744Z,-2.82
2023-02-27T04:17:02.291Z,-2.87
2023-02-27T04:19:45.757Z,-2.87
2023-02-27T04:22:27.581Z,-2.90
2023-02-27T04:25:02.570Z,-2.86
2023-02-27T04:27:38.786Z,-2.82
2023-02-27T04:30:20.811Z,-2.84
2023-02-27T04:32:53.477Z,-2.77
2023-02-27T04:35:31.442Z,-2.73
2023-02-27T04:38:03.550Z,-2.75
2023-02-27T04:40:39.144Z,-2.71
2023-02-27T04:43:13.400Z,-2.74
2023-02-27T04:45:44.709Z,-2.76
2023-02-27T04:48:19.661Z,-2.73
2023-02-27T04:50:53.833Z,-2.73
2023-02-27T04:53:26.481Z,-2.68
2023-02-27T04:55:58.847Z,-2.77
2023-02-27T04:58:36.208Z,-2.82
2023-02-27T05:01:12.713Z,-2.89
2023-02-27T05:03:46.730Z,-2.90
2023-02-27T05:06:28.638Z,-2.95
2023-02-27T05:09:02.306Z,-3.01
2023-02-27T05:11:35.456Z,-3.00
2023-02-27T05:14:11.164Z,-3.00
2023-02-27T05:16:45.684Z,-3.08
2023-02-27T05:19:14.092Z,-3.04
2023-02-27T05:21:55.790Z,-3.03
2023-02-27T05:24:32.475Z,-3.01
2023-02-27T05:27:17.654Z,-3.07
2023-02-27T05:29:50.373Z,-3.09
2023-02-27T05:32:31.833Z,-3.12
2023-02-27T05:35:07.977Z,-3.17
2023-02-27T05:37:41.050Z,-3.23
2023-02-27T05:40:12.718Z,-3.18
2023-02-27T05:42:44.856Z,-3.19
2023-02-27T05:45:18.582Z,-3.23
2023-02-27T05:47:53.426Z,-3.27
2023-02-27T05:50:24.666Z,-3.25
2023-02-27T05:52:54.301Z,-3.27
2023-02-27T05:55:24.983Z,-3.29
2023-02-27T05:58:01.433Z,-3.28
2023-02-27T06:00:35.130Z,-3.31
2023-02-27T06:03:04.772Z,-3.32
2023-02-27T06:05:32.845Z,-3.31
2023-02-27T06:08:03.124Z,-3.26
2023-02-27T06:10:31.044Z,-3.20
2023-02-27T06:12:58.817Z,-3.19
2023-02-27T06:15:27.513Z,-3.12
2023-02-27T06:17:56.375Z,-3.06
2023-02-27T06:20:25.462Z,-3.08
2023-02-27T06:22:53.569Z,-2.99
2023-02-27T06:25:22.054Z,-2.95
2023-02-27T06:27:50.118Z,-2.88
2023-02-27T06:30:18.628Z,-2.85
2023-02-27T06:32:46.486Z,-2.82
2023-02-27T06:35:17.412Z,-2.76
2023-02-27T06:37:46.635Z,-2.70
2023-02-27T06:40:14.678Z,-2.59
2023-02-27T06:42:43.887Z,-2.54
2023-02-27T06:45:14.042Z,-2.49
2023-02-27T06:47:42.463Z,-2.48
2023-02-27T06:50:12.280Z,-2.41
2023-02-27T06:52:40.922Z,-2.24
2023-02-27T06:55:11.835Z,-2.19
2023-02-27T06:57:39.605Z,-2.10
2023-02-27T07:00:10.197Z,-2.05
2023-02-27T07:02:37.908Z,-1.97
2023-02-27T07:05:08.356Z,-1.94
2023-02-27T07:07:38.247Z,-1.89
2023-02-27T07:10:07.636Z,-1.74
2023-02-27T07:12:36.755Z,-1.60
2023-02-27T07:15:05.375Z,-1.56
2023-02-27T07:17:33.176Z,-1.44
2023-02-27T07:20:04.232Z,-1.44
2023-02-27T07:22:32.027Z,-1.33
2023-02-27T07:25:02.611Z,-1.21
2023-02-27T07:27:30.691Z,-1.09
2023-02-27T07:30:00.238Z,-1.04
2023-02-27T07:32:28.101Z,-0.97
2023-02-27T07:34:55.862Z,-0.84
2023-02-27T07:37:23.580Z,-0.84
2023-02-27T07:39:51.272Z,-0.81
2023-02-27T07:42:19.017Z,-0.72
2023-02-27T07:44:46.755Z,-0.68
2023-02-27T07:47:17.659Z,-0.62
2023-02-27T07:49:45.522Z,-0.43
2023-02-27T07:52:13.360Z,-0.37
2023-02-27T07:54:41.162Z,-0.32
2023-02-27T07:57:08.941Z,-0.18
2023-02-27T07:59:36.784Z,-0.22
2023-02-27T08:02:04.608Z,-0.12
2023-02-27T08:04:33.753Z,-0.23
2023-02-27T08:07:03.376Z,-0.08
2023-02-27T08:09:31.622Z,-0.04
2023-02-27T08:11:59.460Z,0.23
2023-02-27T08:14:27.203Z,0.25
2023-02-27T08:16:55.019Z,0.21
2023-02-27T08:19:23.933Z,0.27
2023-02-27T08:21:53.177Z,0.17
2023-02-27T08:24:20.920Z,0.30
2023-02-27T08:26:48.692Z,0.23
2023-02-27T08:29:19.404Z,0.18
2023-02-27T08:31:47.863Z,0.20
2023-02-27T08:34:16.417Z,0.19
2023-02-27T08:36:44.223Z,0.10
2023-02-27T08:39:13.354Z,0.10
2023-02-27T08:41:41.542Z,0.23
2023-02-27T08:44:09.273Z,0.48
2023-02-27T08:46:37.022Z,0.60
2023-02-27T08:49:04.754Z,0.76
2023-02-27T08:51:32.540Z,0.77
2023-02-27T08:54:00.302Z,0.88
2023-02-27T08:56:29.918Z,0.95
2023-02-27T08:58:57.850Z,0.90
2023-02-27T09:01:29.846Z,0.81
2023-02-27T09:03:57.881Z,1.00
2023-02-27T09:06:29.321Z,1.04
2023-02-27T09:08:57.448Z,1.09
2023-02-27T09:11:26.480Z,1.18
2023-02-27T09:13:56.060Z,1.18
2023-02-27T09:16:24.544Z,1.03
2023-02-27T09:18:52.656Z,1.30
2023-02-27T09:21:20.685Z,1.46
2023-02-27T09:23:48.491Z,1.18
2023-02-27T09:26:35.741Z,1.28
2023-02-27T09:29:10.101Z,1.17
2023-02-27T09:31:37.845Z,1.27
2023-02-27T09:34:05.798Z,1.34
2023-02-27T09:36:34.074Z,1.14
2023-02-27T09:39:01.876Z,0.85
2023-02-27T09:41:49.220Z,0.50
2023-02-27T09:44:39.708Z,0.46
2023-02-27T09:47:17.290Z,0.34
2023-02-27T09:49:56.907Z,0.64
2023-02-27T09:52:24.791Z,1.21
2023-02-27T09:54:57.532Z,1.49
2023-02-27T09:57:34.969Z,1.99
2023-02-27T10:00:10.064Z,2.13
2023-02-27T10:02:55.491Z,2.16
2023-02-27T10:05:32.227Z,2.28
2023-02-27T10:08:07.548Z,2.30
2023-02-27T10:10:41.515Z,2.48
2023-02-27T10:13:41.432Z,2.36
2023-02-27T10:16:15.198Z,2.38
2023-02-27T10:18:52.026Z,2.50
2023-02-27T10:21:24.496Z,2.50
2023-02-27T10:23:59.023Z,2.59
2023-02-27T10:26:31.210Z,2.88
2023-02-27T10:28:59.905Z,2.93
2023-02-27T10:31:34.458Z,3.09
2023-02-27T10:34:03.773Z,3.20
2023-02-27T10:36:34.442Z,3.39
2023-02-27T10:39:07.206Z,3.36
2023-02-27T10:41:36.931Z,3.54
2023-02-27T10:44:05.594Z,3.80
2023-02-27T10:46:39.008Z,3.85
2023-02-27T10:49:17.586Z,3.73
2023-02-27T10:51:47.265Z,3.19
2023-02-27T10:54:22.009Z,3.26
2023-02-27T10:56:55.188Z,3.37
2023-02-27T10:59:26.266Z,3.25
2023-02-27T11:01:59.014Z,3.25
2023-02-27T11:04:30.560Z,2.88
2023-02-27T11:07:00.746Z,2.47
2023-02-27T11:09:32.145Z,2.34
2023-02-27T11:12:13.085Z,2.40
2023-02-27T11:14:51.071Z,2.57
2023-02-27T11:17:29.402Z,2.72
2023-02-27T11:20:01.010Z,2.54
2023-02-27T11:22:31.381Z,2.44
2023-02-27T11:25:20.652Z,2.57
2023-02-27T11:27:49.193Z,2.51
2023-02-27T11:30:28.007Z,2.34
2023-02-27T11:33:00.224Z,2.33
2023-02-27T11:35:31.221Z,2.30
2023-02-27T11:38:02.562Z,2.35
2023-02-27T11:40:33.438Z,2.14
2023-02-27T11:43:06.168Z,2.01
2023-02-27T11:46:21.465Z,2.19
2023-02-27T11:48:29.987Z,1.83
2023-02-27T11:51:26.031Z,1.98
2023-02-27T11:54:05.743Z,2.01
2023-02-27T11:56:37.113Z,2.14
2023-02-27T11:59:15.314Z,2.13
2023-02-27T12:01:50.228Z,1.95
2023-02-27T12:04:24.854Z,1.84
2023-02-27T12:06:56.797Z,1.87
2023-02-27T12:09:40.270Z,2.13
2023-02-27T12:12:16.730Z,2.36
2023-02-27T12:14:50.441Z,2.35
2023-02-27T12:17:24.670Z,2.36
2023-02-27T12:20:02.725Z,2.24
2023-02-27T12:22:34.100Z,2.09
2023-02-27T12:25:07.149Z,2.12
2023-02-27T12:27:44.909Z,2.30
2023-02-27T12:30:18.925Z,2.36
2023-02-27T12:32:50.637Z,2.67
2023-02-27T12:35:23.488Z,2.37
2023-02-27T12:37:53.777Z,2.51
2023-02-27T12:40:28.904Z,2.47
2023-02-27T12:43:19.211Z,2.71
2023-02-27T12:45:57.113Z,2.72
2023-02-27T12:48:38.964Z,2.80
2023-02-27T12:51:21.379Z,2.59
2023-02-27T12:54:12.134Z,2.72
2023-02-27T12:56:52.061Z,2.80
2023-02-27T12:59:52.061Z,2.61
2023-02-27T13:02:38.106Z,2.33
2023-02-27T13:05:22.674Z,2.19
2023-02-27T13:07:58.775Z,2.27
2023-02-27T13:10:35.602Z,2.48
2023-02-27T13:13:11.665Z,2.32
2023-02-27T13:15:44.805Z,2.43
2023-02-27T13:18:29.807Z,2.40
2023-02-27T13:21:06.730Z,2.28
2023-02-27T13:23:48.583Z,2.32
2023-02-27T13:26:22.491Z,2.21
2023-02-27T13:28:51.051Z,1.96
2023-02-27T13:31:29.381Z,1.86
2023-02-27T13:34:11.165Z,2.00
2023-02-27T13:36:44.599Z,1.99
2023-02-27T13:39:52.597Z,2.12
2023-02-27T13:42:54.292Z,2.08
2023-02-27T13:45:51.373Z,2.21
2023-02-27T13:48:45.944Z,2.11
2023-02-27T13:51:47.298Z,2.17
2023-02-27T13:54:33.848Z,2.20
2023-02-27T13:57:25.341Z,2.44
2023-02-27T13:59:59.317Z,2.54
2023-02-27T14:02:36.133Z,2.69
2023-02-27T14:05:08.239Z,2.68
2023-02-27T14:07:54.233Z,2.58
2023-02-27T14:10:25.600Z,2.16
2023-02-27T14:12:54.716Z,2.50
2023-02-27T14:15:54.971Z,2.51
2023-02-27T14:18:59.452Z,2.87
2023-02-27T14:22:00.358Z,2.79
2023-02-27T14:24:41.408Z,2.52
2023-02-27T14:27:19.494Z,2.34
2023-02-27T14:29:49.387Z,2.67
2023-02-27T14:32:21.655Z,2.66
2023-02-27T14:34:50.340Z,2.45
2023-02-27T14:37:23.389Z,2.36
2023-02-27T14:39:53.456Z,2.07
2023-02-27T14:42:37.628Z,2.02
2023-02-27T14:45:15.151Z,2.26
2023-02-27T14:47:43.644Z,2.19
2023-02-27T14:50:25.069Z,1.81
2023-02-27T14:52:53.241Z,1.78
2023-02-27T14:55:27.982Z,1.87
2023-02-27T14:57:58.493Z,1.82
2023-02-27T15:00:40.176Z,1.56
2023-02-27T15:03:18.363Z,1.54
2023-02-27T15:05:47.045Z,1.56
2023-02-27T15:08:18.666Z,1.48
2023-02-27T15:10:47.234Z,1.50
2023-02-27T15:13:28.519Z,1.39
2023-02-27T15:16:21.063Z,1.32
2023-02-27T15:18:50.767Z,1.19
2023-02-27T15:21:19.705Z,1.00
2023-02-27T15:23:55.512Z,0.93
2023-02-27T15:26:23.439Z,0.66
2023-02-27T15:28:51.592Z,0.73
2023-02-27T15:31:23.560Z,0.67
2023-02-27T15:33:55.223Z,0.73
2023-02-27T15:36:25.703Z,0.68
2023-02-27T15:39:07.146Z,0.70
2023-02-27T15:41:38.590Z,0.62
2023-02-27T15:44:06.708Z,0.49
2023-02-27T15:46:35.944Z,0.58
2023-02-27T15:49:03.939Z,0.52
2023-02-27T15:51:33.695Z,0.56
2023-02-27T15:54:01.789Z,0.51
2023-02-27T15:56:35.164Z,0.36
2023-02-27T15:59:03.525Z,0.45
2023-02-27T16:01:35.831Z,0.39
2023-02-27T16:04:08.587Z,0.18
2023-02-27T16:06:39.151Z,0.14
2023-02-27T16:09:17.719Z,0.14
2023-02-27T16:11:45.726Z,0.06
2023-02-27T16:14:40.976Z,-0.15
2023-02-27T16:17:31.324Z,-0.20
2023-02-27T16:20:02.269Z,-0.32
2023-02-27T16:22:30.633Z,-0.30
2023-02-27T16:25:10.630Z,-0.34
2023-02-27T16:27:39.920Z,-0.44
2023-02-27T16:30:13.192Z,-0.49
2023-02-27T16:32:44.031Z,-0.56
2023-02-27T16:35:19.472Z,-0.65
2023-02-27T16:37:48.116Z,-0.62
2023-02-27T16:40:20.246Z,-0.68
2023-02-27T16:42:48.191Z,-0.74
2023-02-27T16:45:18.237Z,-0.82
2023-02-27T16:47:50.889Z,-0.78
2023-02-27T16:50:24.744Z,-0.86
2023-02-27T16:52:52.543Z,-0.92
2023-02-27T16:55:20.564Z,-0.93
2023-02-27T16:57:48.440Z,-0.95
2023-02-27T17:00:24.140Z,-0.97
2023-02-27T17:02:53.249Z,-1.03
2023-02-27T17:05:21.026Z,-1.08
2023-02-27T17:07:48.803Z,-1.06
2023-02-27T17:10:17.726Z,-1.00
2023-02-27T17:12:47.012Z,-1.06
2023-02-27T17:15:15.108Z,-1.06
2023-02-27T17:17:43.253Z,-1.13
2023-02-27T17:20:14.472Z,-1.09
2023-02-27T17:22:43.859Z,-1.10
2023-02-27T17:25:13.498Z,-1.10
2023-02-27T17:27:43.173Z,-1.18
2023-02-27T17:30:12.169Z,-1.09
2023-02-27T17:32:39.940Z,-1.18
2023-02-27T17:35:09.008Z,-1.24
2023-02-27T17:37:38.319Z,-1.24
2023-02-27T17:40:08.166Z,-1.18
2023-02-27T17:42:39.876Z,-1.24
2023-02-27T17:45:11.491Z,-1.23
2023-02-27T17:47:39.236Z,-1.30
2023-02-27T17:50:12.605Z,-1.32
2023-02-27T17:52:41.790Z,-1.29
2023-02-27T17:55:10.972Z,-1.33
2023-02-27T17:57:39.927Z,-1.31
2023-02-27T18:00:11.804Z,-1.34
2023-02-27T18:02:39.514Z,-1.35
2023-02-27T18:05:08.274Z,-1.38
2023-02-27T18:07:36.113Z,-1.39
2023-02-27T18:10:09.164Z,-1.44
2023-02-27T18:12:36.964Z,-1.46
2023-02-27T18:15:07.228Z,-1.55
2023-02-27T18:17:35.207Z,-1.55
2023-02-27T18:20:05.249Z,-1.49
2023-02-27T18:22:33.187Z,-1.46
2023-02-27T18:25:01.060Z,-1.48
2023-02-27T18:27:30.184Z,-1.61
2023-02-27T18:29:59.167Z,-1.56
2023-02-27T18:32:27.137Z,-1.55
2023-02-27T18:34:54.878Z,-1.57
2023-02-27T18:37:24.687Z,-1.56
2023-02-27T18:39:52.626Z,-1.53
2023-02-27T18:42:20.329Z,-1.58
2023-02-27T18:44:49.531Z,-1.60
2023-02-27T18:47:17.289Z,-1.64
2023-02-27T18:49:46.020Z,-1.67
2023-02-27T18:52:13.808Z,-1.79
2023-02-27T18:54:43.160Z,-1.74
2023-02-27T18:57:11.194Z,-1.80
2023-02-27T18:59:41.204Z,-1.82
2023-02-27T19:02:15.857Z,-1.82
2023-02-27T19:04:43.631Z,-1.85
2023-02-27T19:07:11.367Z,-1.86
2023-02-27T19:09:39.129Z,-1.89
2023-02-27T19:12:07.098Z,-1.92
2023-02-27T19:14:34.791Z,-1.92
2023-02-27T19:17:02.465Z,-2.01
2023-02-27T19:19:31.580Z,-2.01
2023-02-27T19:22:01.028Z,-1.98
2023-02-27T19:24:28.772Z,-1.99
2023-02-27T19:26:56.493Z,-2.04
2023-02-27T19:29:27.115Z,-2.08
2023-02-27T19:31:56.035Z,-2.13
2023-02-27T19:34:23.845Z,-2.13
2023-02-27T19:36:52.951Z,-2.12
2023-02-27T19:39:22.231Z,-2.19
2023-02-27T19:41:50.029Z,-2.17
2023-02-27T19:44:17.845Z,-2.19
2023-02-27T19:46:46.416Z,-2.21
2023-02-27T19:49:16.531Z,-2.26
2023-02-27T19:51:44.479Z,-2.25
2023-02-27T19:54:15.385Z,-2.31
2023-02-27T19:56:43.516Z,-2.25
2023-02-27T19:59:12.361Z,-2.26
2023-02-27T20:01:41.478Z,-2.26
2023-02-27T20:04:10.974Z,-2.28
2023-02-27T20:06:42.590Z,-2.38
2023-02-27T20:09:13.169Z,-2.40
2023-02-27T20:11:43.423Z,-2.32
2023-02-27T20:14:12.213Z,-2.32
2023-02-27T20:16:41.249Z,-2.36
2023-02-27T20:19:11.573Z,-2.37
2023-02-27T20:21:39.500Z,-2.37
2023-02-27T20:24:10.105Z,-2.40
2023-02-27T20:26:40.206Z,-2.39
2023-02-27T20:29:11.801Z,-2.39
2023-02-27T20:31:41.712Z,-2.35
2023-02-27T20:34:12.216Z,-2.30
2023-02-27T20:36:41.540Z,-2.36
2023-02-27T20:39:11.030Z,-2.30
2023-02-27T20:41:40.224Z,-2.29
2023-02-27T20:44:11.354Z,-2.35
2023-02-27T20:46:40.916Z,-2.33
2023-02-27T20:49:10.235Z,-2.35
2023-02-27T20:51:41.844Z,-2.35
2023-02-27T20:54:13.417Z,-2.37
2023-02-27T20:56:43.207Z,-2.40
2023-02-27T20:59:15.731Z,-2.40
2023-02-27T21:01:51.103Z,-2.46
2023-02-27T21:04:19.822Z,-2.56
2023-02-27T21:06:47.592Z,-2.53
2023-02-27T21:09:16.097Z,-2.56
2023-02-27T21:11:43.884Z,-2.57
2023-02-27T21:14:13.351Z,-2.55
2023-02-27T21:16:41.359Z,-2.53
2023-02-27T21:19:09.509Z,-2.52
2023-02-27T21:21:37.834Z,-2.60
2023-02-27T21:24:06.654Z,-2.61
2023-02-27T21:26:37.875Z,-2.55
2023-02-27T21:29:09.515Z,-2.58
2023-02-27T21:31:40.386Z,-2.61
2023-02-27T21:34:11.647Z,-2.61
2023-02-27T21:36:42.530Z,-2.63
2023-02-27T21:39:13.607Z,-2.62
2023-02-27T21:41:41.989Z,-2.69
2023-02-27T21:44:12.896Z,-2.64
2023-02-27T21:46:42.409Z,-2.66
2023-02-27T21:49:13.717Z,-2.73
2023-02-27T21:51:44.612Z,-2.71
2023-02-27T21:54:14.279Z,-2.73
2023-02-27T21:56:42.549Z,-2.72
2023-02-27T21:59:10.950Z,-2.66
2023-02-27T22:01:39.538Z,-2.66
2023-02-27T22:04:09.219Z,-2.67
2023-02-27T22:06:39.421Z,-2.71
2023-02-27T22:09:07.980Z,-2.74
2023-02-27T22:11:36.207Z,-2.76
2023-02-27T22:14:06.184Z,-2.82
2023-02-27T22:16:34.245Z,-2.82
2023-02-27T22:19:06.178Z,-2.96
2023-02-27T22:21:36.463Z,-3.05
2023-02-27T22:24:04.575Z,-3.05
2023-02-27T22:26:33.392Z,-3.17
2023-02-27T22:29:01.583Z,-3.26
2023-02-27T22:31:31.715Z,-3.31
2023-02-27T22:34:01.856Z,-3.35
2023-02-27T22:36:30.959Z,-3.42
2023-02-27T22:39:01.054Z,-3.49
2023-02-27T22:41:31.568Z,-3.53
2023-02-27T22:44:00.781Z,-3.56
2023-02-27T22:46:30.843Z,-3.58
2023-02-27T22:49:00.639Z,-3.56
2023-02-27T22:51:29.360Z,-3.59
2023-02-27T22:53:58.758Z,-3.64
2023-02-27T23:00:40.027Z,-3.79
2023-02-27T23:03:08.481Z,-3.81
2023-02-27T23:05:36.208Z,-3.82
2023-02-27T23:08:03.919Z,-3.83
2023-02-27T23:10:31.657Z,-3.82
2023-02-27T23:12:59.338Z,-3.84
2023-02-27T23:15:27.115Z,-3.79
2023-02-27T23:17:58.436Z,-3.82
2023-02-27T23:20:27.314Z,-3.82
2023-02-27T23:22:55.077Z,-3.84
2023-02-27T23:25:22.774Z,-3.87
2023-02-27T23:27:50.530Z,-3.88
2023-02-27T23:30:18.536Z,-3.92
2023-02-27T23:32:46.246Z,-3.91
2023-02-27T23:35:17.241Z,-3.94
2023-02-27T23:37:44.965Z,-3.94
2023-02-27T23:40:16.368Z,-3.90
2023-02-27T23:42:44.285Z,-3.94
2023-02-27T23:45:12.629Z,-3.99
2023-02-27T23:47:43.011Z,-3.93
2023-02-27T23:50:12.296Z,-3.99
2023-02-27T23:52:41.408Z,-4.00
2023-02-27T23:55:10.118Z,-4.08
2023-02-27T23:57:37.991Z,-4.19
